Flugplatz Celle Airport

Bericht für ETHC

vom 25.09. um 20:20 UTC

Wind 2 kt aus 130°

Sichtweite 10 km oder mehr

aufgebrochene Bewölkung in 12000 ft

aufgelockert bewölkt in 20000 ft

Temperatur 11.0°C

Taupunkt 4.0°C

Luftfeuchtigkeit 62%

Luftdruck 997 hPa

ETHC 252020Z 13002KT 9999 BKN120 SCT200 11/04 Q0997 BLU
Keine Prognose (TAF) verfügbar.
Impressum